Time;durP1;ratioP1;P1;durP2;ratioP2;P2;SDS_P1;SDS_P2;PMS_P1;PMS_P2;Temp;Humidity;BMP_temperature;BMP_pressure;BME280_temperature;BME280_humidity;BME280_pressure;Samples;Min_cycle;Max_cycle;Signal;HPM_P1;HPM_P2
2022/04/19 00:00:07;;;;;;;4.67;3.03;;;4.20;99.90;;;;;;5052701;28;20100;-80
2022/04/19 00:02:32;;;;;;;7.43;3.90;;;4.20;99.90;;;;;;5052910;28;20090;-80
2022/04/19 00:04:59;;;;;;;4.53;2.93;;;4.10;99.90;;;;;;5052816;28;20112;-80
2022/04/19 00:07:25;;;;;;;4.63;3.27;;;4.10;99.90;;;;;;5053226;28;20021;-80
2022/04/19 00:09:51;;;;;;;5.13;3.17;;;4.00;99.90;;;;;;5053109;28;20033;-80
2022/04/19 00:12:17;;;;;;;6.50;3.03;;;4.00;99.90;;;;;;5053400;28;20466;-80
2022/04/19 00:14:43;;;;;;;5.43;2.93;;;4.00;99.90;;;;;;5071360;28;20021;-80
2022/04/19 00:17:08;;;;;;;5.43;3.20;;;3.90;99.90;;;;;;5073457;28;20492;-80
2022/04/19 00:19:34;;;;;;;4.40;2.70;;;3.90;99.90;;;;;;5073373;28;20028;-80
2022/04/19 00:22:00;;;;;;;4.77;2.90;;;3.90;99.90;;;;;;5062520;28;20036;-80
2022/04/19 00:24:25;;;;;;;5.80;3.10;;;3.90;99.90;;;;;;5052908;28;20028;-80
2022/04/19 00:26:51;;;;;;;4.77;2.90;;;3.90;99.90;;;;;;5053423;28;20051;-80
2022/04/19 00:29:16;;;;;;;3.27;2.20;;;3.90;99.90;;;;;;5053052;28;20040;-80
2022/04/19 00:31:43;;;;;;;4.53;2.70;;;3.90;99.90;;;;;;5053743;28;20407;-80
2022/04/19 00:34:09;;;;;;;5.37;2.87;;;3.90;99.90;;;;;;5051713;28;20016;-80
2022/04/19 00:36:34;;;;;;;4.63;2.60;;;3.90;99.90;;;;;;5034050;28;20382;-80
2022/04/19 00:39:00;;;;;;;3.80;2.70;;;3.80;99.90;;;;;;5067405;28;20029;-80
2022/04/19 00:41:25;;;;;;;4.17;2.70;;;3.90;99.90;;;;;;5076810;28;20592;-80
2022/04/19 00:43:51;;;;;;;6.03;3.10;;;3.80;99.90;;;;;;5072511;28;20382;-80
2022/04/19 00:46:17;;;;;;;5.17;2.90;;;3.90;99.90;;;;;;5065020;28;20409;-79
2022/04/19 00:48:42;;;;;;;5.33;3.23;;;3.80;99.90;;;;;;5076162;28;20028;-80
2022/04/19 00:51:08;;;;;;;6.57;3.33;;;3.80;99.90;;;;;;5075144;28;20050;-80
2022/04/19 00:53:34;;;;;;;5.40;2.60;;;3.80;99.90;;;;;;5055948;28;20028;-80
2022/04/19 00:56:01;;;;;;;4.80;2.77;;;3.70;99.90;;;;;;5074013;28;20377;-80
2022/04/19 00:58:27;;;;;;;3.80;3.00;;;3.70;99.90;;;;;;5073787;28;20094;-80
2022/04/19 01:00:52;;;;;;;3.47;2.90;;;3.60;99.90;;;;;;5055289;28;20027;-80
2022/04/19 01:03:18;;;;;;;3.90;2.73;;;3.50;99.90;;;;;;5073618;28;20016;-80
2022/04/19 01:05:48;;;;;;;4.33;2.77;;;3.50;99.90;;;;;;5073522;28;20067;-80
2022/04/19 01:08:14;;;;;;;4.37;2.60;;;3.50;99.90;;;;;;5056053;28;20051;-80
2022/04/19 01:10:42;;;;;;;5.20;3.07;;;3.40;99.90;;;;;;5073440;28;20067;-80
2022/04/19 01:13:17;;;;;;;5.47;2.97;;;3.40;99.90;;;;;;5067350;28;20116;-80
2022/04/19 01:15:50;;;;;;;5.07;2.97;;;3.40;99.90;;;;;;5036409;28;20036;-80
2022/04/19 01:18:22;;;;;;;4.17;2.90;;;3.40;99.90;;;;;;5054081;28;20386;-80
2022/04/19 01:20:52;;;;;;;4.93;2.80;;;3.40;99.90;;;;;;5054732;28;20465;-80
2022/04/19 01:23:19;;;;;;;4.20;2.80;;;3.40;99.90;;;;;;5054991;28;20025;-80
2022/04/19 01:25:45;;;;;;;3.63;2.70;;;3.40;99.90;;;;;;5054704;28;20036;-80
2022/04/19 01:28:10;;;;;;;9.00;3.13;;;3.40;99.90;;;;;;5062849;28;20111;-80
2022/04/19 01:30:38;;;;;;;3.70;2.57;;;3.40;99.90;;;;;;5074785;28;20112;-80
2022/04/19 01:33:04;;;;;;;3.17;2.50;;;3.50;99.90;;;;;;5072281;28;20048;-80
2022/04/19 01:35:29;;;;;;;6.10;2.67;;;3.50;99.90;;;;;;5072815;28;20057;-80
2022/04/19 01:37:55;;;;;;;6.17;2.83;;;3.60;99.90;;;;;;5075144;28;20065;-80
2022/04/19 01:40:20;;;;;;;4.63;2.40;;;3.60;99.90;;;;;;5075180;28;20094;-80
2022/04/19 01:42:48;;;;;;;4.27;2.47;;;3.60;99.90;;;;;;5072869;28;20029;-80
2022/04/19 01:45:18;;;;;;;4.00;3.07;;;3.60;99.90;;;;;;5074507;28;20104;-80
2022/04/19 01:47:44;;;;;;;4.63;2.87;;;3.70;99.90;;;;;;5074006;28;20056;-80
2022/04/19 01:50:12;;;;;;;5.03;2.50;;;3.70;99.90;;;;;;5073775;28;20036;-80
2022/04/19 01:52:39;;;;;;;3.67;2.53;;;3.70;99.90;;;;;;5075879;28;20032;-80
2022/04/19 01:55:10;;;;;;;4.53;2.60;;;3.70;99.90;;;;;;5075386;28;20032;-80
2022/04/19 01:57:36;;;;;;;4.13;2.63;;;3.70;99.90;;;;;;5057704;28;20051;-80
2022/04/19 02:00:05;;;;;;;6.40;3.20;;;3.80;99.90;;;;;;5074826;28;20028;-80
2022/04/19 02:02:31;;;;;;;7.20;3.03;;;3.70;99.90;;;;;;5075065;28;20029;-80
2022/04/19 02:04:57;;;;;;;3.63;2.40;;;3.60;99.90;;;;;;5074981;28;20109;-80
2022/04/19 02:07:23;;;;;;;4.77;2.97;;;3.50;99.90;;;;;;5059127;28;20029;-80
2022/04/19 02:09:49;;;;;;;5.47;2.90;;;3.50;99.90;;;;;;5052271;28;20364;-80
2022/04/19 02:12:14;;;;;;;10.03;3.00;;;3.50;99.90;;;;;;5053207;28;20025;-80
2022/04/19 02:14:41;;;;;;;5.33;3.07;;;3.50;99.90;;;;;;5035552;28;20459;-80
2022/04/19 02:17:11;;;;;;;5.70;3.10;;;3.40;99.90;;;;;;5054467;28;20028;-80
2022/04/19 02:19:37;;;;;;;6.03;2.80;;;3.40;99.90;;;;;;5054696;28;20031;-80
2022/04/19 02:22:09;;;;;;;5.67;2.83;;;3.40;99.90;;;;;;5054233;28;20032;-81
2022/04/19 02:24:35;;;;;;;6.00;3.37;;;3.30;99.90;;;;;;5054769;28;20072;-80
2022/04/19 02:27:01;;;;;;;6.93;2.93;;;3.40;99.90;;;;;;5054780;28;20470;-80
2022/04/19 02:29:27;;;;;;;7.57;3.30;;;3.30;99.90;;;;;;5052225;28;20573;-80
2022/04/19 02:31:53;;;;;;;5.63;3.10;;;3.30;99.90;;;;;;5073857;28;20414;-81
2022/04/19 02:34:19;;;;;;;7.80;3.03;;;3.30;99.90;;;;;;5074648;28;20070;-80
2022/04/19 02:36:45;;;;;;;6.43;2.97;;;3.30;99.90;;;;;;5074460;28;20492;-81
2022/04/19 02:39:11;;;;;;;4.60;2.80;;;3.30;99.90;;;;;;5075106;28;20047;-80
2022/04/19 02:41:37;;;;;;;4.13;2.60;;;3.30;99.90;;;;;;5074236;28;20025;-80
2022/04/19 02:44:06;;;;;;;8.20;3.20;;;3.30;99.90;;;;;;5074570;28;20032;-80
2022/04/19 02:46:33;;;;;;;8.23;3.23;;;3.30;99.90;;;;;;5074306;28;20727;-80
2022/04/19 02:48:59;;;;;;;5.90;3.33;;;3.20;99.90;;;;;;5073997;28;20500;-80
2022/04/19 02:51:25;;;;;;;3.93;2.60;;;3.20;99.90;;;;;;5056728;28;20029;-80
2022/04/19 02:53:51;;;;;;;4.23;3.10;;;3.20;99.90;;;;;;5074044;28;20025;-80
2022/04/19 02:56:17;;;;;;;6.20;2.67;;;3.20;99.90;;;;;;5074786;28;20036;-80
2022/04/19 02:58:45;;;;;;;3.50;2.33;;;3.20;99.90;;;;;;5073437;28;20036;-80
2022/04/19 03:01:11;;;;;;;4.80;2.60;;;3.20;99.90;;;;;;5058491;28;20032;-80
2022/04/19 03:03:37;;;;;;;5.37;2.87;;;3.20;99.90;;;;;;5059807;28;20028;-80
2022/04/19 03:06:03;;;;;;;6.00;2.73;;;3.20;99.90;;;;;;5073457;28;20436;-80
2022/04/19 03:08:28;;;;;;;5.23;2.60;;;3.20;99.90;;;;;;5055360;28;20098;-80
2022/04/19 03:10:55;;;;;;;4.83;2.50;;;3.20;99.90;;;;;;5073020;28;20466;-80
2022/04/19 03:13:21;;;;;;;4.13;2.20;;;3.30;99.90;;;;;;5058690;28;20048;-80
2022/04/19 03:15:47;;;;;;;5.03;2.70;;;3.20;99.90;;;;;;5052891;28;20025;-80
2022/04/19 03:18:13;;;;;;;5.03;2.33;;;3.30;99.90;;;;;;5053147;28;20017;-80
2022/04/19 03:20:38;;;;;;;3.83;2.17;;;3.30;99.90;;;;;;5053075;28;20025;-80
2022/04/19 03:28:32;;;;;;;4.37;2.27;;;3.30;99.90;;;;;;5053103;28;20079;-80
2022/04/19 03:30:58;;;;;;;4.37;2.70;;;3.30;99.90;;;;;;5056622;28;20052;-80
2022/04/19 03:33:23;;;;;;;6.93;2.73;;;3.30;99.90;;;;;;5073968;28;20431;-80
2022/04/19 03:35:49;;;;;;;6.47;3.03;;;3.30;99.90;;;;;;5073680;28;20029;-80
2022/04/19 03:38:14;;;;;;;4.20;2.90;;;3.30;99.90;;;;;;5073675;28;20032;-80
2022/04/19 03:40:40;;;;;;;5.07;2.97;;;3.40;99.90;;;;;;5055654;28;20036;-80
2022/04/19 03:43:07;;;;;;;3.10;2.30;;;3.40;99.90;;;;;;5073400;28;20037;-80
2022/04/19 03:45:33;;;;;;;3.97;2.70;;;3.40;99.90;;;;;;5071176;28;20024;-80
2022/04/19 03:48:00;;;;;;;5.10;2.83;;;3.40;99.90;;;;;;5064220;28;20062;-80
2022/04/19 03:50:26;;;;;;;5.20;3.00;;;3.40;99.90;;;;;;5072868;28;20028;-80
2022/04/19 03:52:52;;;;;;;4.13;3.07;;;3.40;99.90;;;;;;5073821;28;20031;-80
2022/04/19 03:55:17;;;;;;;5.50;2.60;;;3.40;99.90;;;;;;5065991;28;20100;-80
2022/04/19 03:57:43;;;;;;;4.57;2.50;;;3.40;99.90;;;;;;5053900;28;20060;-80
2022/04/19 04:00:09;;;;;;;9.57;3.03;;;3.40;99.90;;;;;;5069893;28;20093;-80
2022/04/19 04:02:35;;;;;;;4.57;2.70;;;3.50;99.90;;;;;;5072345;28;20042;-80
2022/04/19 04:05:00;;;;;;;7.27;2.87;;;3.50;99.90;;;;;;5073308;28;20106;-80
2022/04/19 04:07:30;;;;;;;3.70;2.70;;;3.50;99.90;;;;;;5073519;28;20036;-80
2022/04/19 04:09:56;;;;;;;3.30;2.50;;;3.50;99.90;;;;;;5072995;28;20043;-80
2022/04/19 04:12:21;;;;;;;5.47;2.80;;;3.50;99.90;;;;;;5051370;28;20471;-80
2022/04/19 04:14:47;;;;;;;7.33;3.00;;;3.50;99.90;;;;;;5052944;28;20029;-80
2022/04/19 04:17:13;;;;;;;4.27;2.90;;;3.50;99.90;;;;;;5056053;28;20047;-80
2022/04/19 04:19:38;;;;;;;7.60;3.23;;;3.50;99.90;;;;;;5070070;28;20417;-80
2022/04/19 04:22:04;;;;;;;4.03;2.83;;;3.50;99.90;;;;;;5068803;28;20028;-80
2022/04/19 04:24:30;;;;;;;6.10;2.90;;;3.50;99.90;;;;;;5068860;28;20477;-80
2022/04/19 04:26:56;;;;;;;6.70;3.40;;;3.50;99.90;;;;;;5042803;28;20033;-80
2022/04/19 04:29:22;;;;;;;6.73;3.67;;;3.40;99.90;;;;;;5051132;28;20166;-80
2022/04/19 04:31:47;;;;;;;6.03;3.80;;;3.40;99.90;;;;;;5065564;28;20032;-80
2022/04/19 04:34:13;;;;;;;5.27;3.40;;;3.40;99.90;;;;;;5040282;28;20427;-80
2022/04/19 04:36:38;;;;;;;5.47;2.77;;;3.40;99.90;;;;;;5064928;28;20043;-80
2022/04/19 04:39:04;;;;;;;6.13;3.20;;;3.40;99.90;;;;;;5069280;28;20651;-80
2022/04/19 04:41:30;;;;;;;5.93;3.00;;;3.30;99.90;;;;;;5068303;28;20032;-80
2022/04/19 04:43:55;;;;;;;12.07;3.20;;;3.30;99.90;;;;;;5060657;28;20032;-80
2022/04/19 04:51:49;;;;;;;6.57;3.70;;;3.30;99.90;;;;;;5052282;28;20066;-80
2022/04/19 04:54:15;;;;;;;7.87;4.10;;;3.30;99.90;;;;;;5053606;28;20025;-73
2022/04/19 04:56:40;;;;;;;7.40;3.80;;;3.30;99.90;;;;;;5052627;28;20025;-73
2022/04/19 04:59:06;;;;;;;8.70;4.73;;;3.40;99.90;;;;;;5052835;28;20135;-73
2022/04/19 05:01:32;;;;;;;10.47;4.37;;;3.40;99.90;;;;;;5034641;28;20044;-73
2022/04/19 05:03:57;;;;;;;10.03;4.87;;;3.50;99.90;;;;;;5052559;28;20025;-73
2022/04/19 05:06:23;;;;;;;12.47;5.10;;;3.50;99.90;;;;;;5052630;28;20028;-74
2022/04/19 05:08:48;;;;;;;9.60;4.60;;;3.50;99.90;;;;;;5057855;28;20214;-81
2022/04/19 05:11:15;;;;;;;10.87;4.17;;;3.60;99.90;;;;;;5063924;28;20036;-80
2022/04/19 05:13:41;;;;;;;9.60;4.60;;;3.60;99.90;;;;;;5069774;28;20017;-79
2022/04/19 05:16:06;;;;;;;5.80;3.50;;;3.70;99.90;;;;;;5065535;28;20035;-79
2022/04/19 05:18:32;;;;;;;7.83;3.43;;;3.80;99.90;;;;;;5068151;28;20093;-82
2022/04/19 05:20:57;;;;;;;4.87;3.20;;;3.90;99.90;;;;;;5066819;28;20029;-80
2022/04/19 05:23:23;;;;;;;7.87;3.33;;;4.00;99.90;;;;;;5057118;28;20021;-80
2022/04/19 05:25:48;;;;;;;10.43;3.60;;;4.10;99.90;;;;;;5070932;28;20095;-80
2022/04/19 05:28:14;;;;;;;11.23;3.90;;;4.10;99.90;;;;;;5050168;28;20024;-82
2022/04/19 05:30:40;;;;;;;7.93;3.70;;;4.20;99.90;;;;;;5048895;28;20024;-80
2022/04/19 05:33:06;;;;;;;5.30;2.70;;;4.30;99.90;;;;;;5063234;28;20021;-80
2022/04/19 05:35:32;;;;;;;8.03;3.10;;;4.40;99.90;;;;;;5065646;28;20128;-81
2022/04/19 05:37:59;;;;;;;15.30;3.30;;;4.50;99.90;;;;;;5067921;28;20021;-81
2022/04/19 05:40:25;;;;;;;7.00;3.07;;;4.60;99.90;;;;;;5052057;28;20131;-81
2022/04/19 05:42:51;;;;;;;6.00;3.00;;;4.70;99.90;;;;;;5049454;28;20176;-80
2022/04/19 05:45:17;;;;;;;7.73;3.13;;;4.80;99.90;;;;;;5055848;28;20040;-80
2022/04/19 05:47:43;;;;;;;4.93;3.13;;;4.90;99.90;;;;;;5057031;28;20148;-80
2022/04/19 05:50:09;;;;;;;7.57;3.40;;;5.10;99.90;;;;;;5063368;28;20025;-81
2022/04/19 05:52:35;;;;;;;4.23;2.93;;;5.10;99.90;;;;;;5063265;28;20461;-81
2022/04/19 05:55:00;;;;;;;4.83;3.17;;;5.20;99.90;;;;;;5066631;28;20025;-81
2022/04/19 05:57:26;;;;;;;5.17;3.50;;;5.40;99.90;;;;;;5044829;28;20056;-81
2022/04/19 05:59:51;;;;;;;4.10;2.37;;;5.60;99.90;;;;;;5068902;28;20047;-81
2022/04/19 06:05:01;;;;;;;6.73;3.10;;;5.90;99.90;;;;;;5068973;28;20035;-80
2022/04/19 06:07:31;;;;;;;6.87;3.40;;;6.10;99.90;;;;;;5061136;28;20033;-80
2022/04/19 06:09:59;;;;;;;6.83;3.60;;;6.10;99.90;;;;;;5051000;28;20061;-74
2022/04/19 06:12:24;;;;;;;5.03;3.27;;;6.30;99.90;;;;;;5075246;28;20031;-74
2022/04/19 06:14:50;;;;;;;5.57;3.93;;;6.40;99.90;;;;;;5074893;28;20020;-74
2022/04/19 06:17:17;;;;;;;6.30;3.47;;;6.50;99.90;;;;;;5075017;28;20216;-74
2022/04/19 06:19:44;;;;;;;4.20;3.23;;;6.70;99.90;;;;;;5059038;28;20025;-78
2022/04/19 06:22:10;;;;;;;6.90;3.30;;;6.80;99.90;;;;;;5036775;28;20084;-76
2022/04/19 06:24:36;;;;;;;12.63;3.00;;;6.90;99.90;;;;;;5053381;28;20021;-73
2022/04/19 06:27:01;;;;;;;4.33;3.00;;;7.10;99.90;;;;;;5054933;28;20073;-72
2022/04/19 06:29:27;;;;;;;5.27;3.27;;;7.20;99.90;;;;;;5051700;28;20036;-72
2022/04/19 06:31:53;;;;;;;4.40;2.77;;;7.30;99.90;;;;;;5063776;28;20368;-73
2022/04/19 06:34:19;;;;;;;6.00;2.63;;;7.40;99.90;;;;;;5059145;28;20433;-75
2022/04/19 06:36:45;;;;;;;4.00;2.83;;;7.50;99.90;;;;;;5056965;28;20107;-77
2022/04/19 06:39:11;;;;;;;7.00;2.97;;;7.60;99.90;;;;;;5054832;28;20536;-77
2022/04/19 06:41:37;;;;;;;5.10;2.90;;;7.60;99.90;;;;;;5052007;28;20056;-77
2022/04/19 06:44:03;;;;;;;5.73;2.90;;;7.60;99.90;;;;;;5048318;28;20063;-77
2022/04/19 06:46:32;;;;;;;4.17;2.83;;;7.70;99.90;;;;;;5053075;28;20496;-76
2022/04/19 06:48:58;;;;;;;4.20;2.83;;;7.80;99.90;;;;;;5046312;28;20082;-76
2022/04/19 06:51:25;;;;;;;5.20;2.50;;;7.80;99.90;;;;;;5059563;28;20032;-79
2022/04/19 06:53:51;;;;;;;5.03;2.67;;;7.90;99.90;;;;;;5038255;28;20082;-79
2022/04/19 06:56:19;;;;;;;4.60;3.03;;;8.00;99.90;;;;;;5033697;28;20401;-78
2022/04/19 06:58:45;;;;;;;4.87;2.43;;;8.10;99.90;;;;;;5057447;28;20029;-73
2022/04/19 07:01:10;;;;;;;6.17;2.70;;;8.20;99.90;;;;;;5062595;28;20522;-73
2022/04/19 07:03:37;;;;;;;5.73;2.40;;;8.40;99.90;;;;;;5061131;28;20554;-73
2022/04/19 07:06:03;;;;;;;5.43;2.60;;;8.60;99.90;;;;;;5046542;28;20027;-73
2022/04/19 07:08:29;;;;;;;4.13;2.70;;;8.70;99.90;;;;;;5060082;28;20029;-73
2022/04/19 07:10:58;;;;;;;5.10;3.10;;;9.10;99.90;;;;;;5055836;28;20039;-77
2022/04/19 07:13:24;;;;;;;4.63;2.60;;;9.10;99.90;;;;;;5047220;28;20036;-77
2022/04/19 07:15:53;;;;;;;5.87;3.10;;;9.50;99.90;;;;;;5047367;28;20025;-79
2022/04/19 07:18:26;;;;;;;5.47;2.60;;;9.50;99.90;;;;;;5031558;28;20082;-77
2022/04/19 07:26:40;;;;;;;6.40;3.07;;;9.50;99.90;;;;;;5050548;28;20067;-72
2022/04/19 07:29:07;;;;;;;;;;;9.70;99.90;;;;;;5052230;28;20114;-79
2022/04/19 07:31:33;;;;;;;7.97;3.43;;;9.80;99.90;;;;;;5046515;28;20353;-79
2022/04/19 07:33:59;;;;;;;9.13;2.90;;;9.90;99.90;;;;;;5049343;28;20044;-79
2022/04/19 07:36:24;;;;;;;4.30;2.77;;;10.00;99.90;;;;;;5046699;28;20033;-79
2022/04/19 07:38:50;;;;;;;6.23;3.20;;;10.10;99.90;;;;;;5034109;28;20093;-79
2022/04/19 07:41:17;;;;;;;5.10;3.10;;;10.10;99.90;;;;;;5035255;28;20028;-77
2022/04/19 07:43:44;;;;;;;4.33;3.23;;;10.10;99.90;;;;;;5053800;28;20021;-77
2022/04/19 07:46:10;;;;;;;5.67;3.00;;;10.30;99.90;;;;;;5054471;28;20033;-77
2022/04/19 07:48:37;;;;;;;4.70;3.23;;;10.40;99.90;;;;;;5052503;28;20197;-77
2022/04/19 07:51:03;;;;;;;5.17;3.50;;;10.30;99.90;;;;;;5048241;28;20059;-80
2022/04/19 07:53:28;;;;;;;6.13;3.80;;;10.30;99.90;;;;;;5051010;28;20174;-76
2022/04/19 07:55:57;;;;;;;6.57;3.50;;;10.40;99.90;;;;;;5054403;28;20044;-77
2022/04/19 07:58:26;;;;;;;4.93;3.40;;;10.50;99.90;;;;;;5051529;28;20384;-76
2022/04/19 08:00:52;;;;;;;10.33;3.87;;;10.60;99.90;;;;;;5035801;28;20047;-76
2022/04/19 08:03:17;;;;;;;7.47;3.90;;;10.50;99.90;;;;;;5052794;28;20040;-76
2022/04/19 08:05:43;;;;;;;7.13;3.80;;;10.70;99.90;;;;;;5032986;28;20028;-76
2022/04/19 08:08:08;;;;;;;5.73;4.10;;;10.90;99.90;;;;;;5051347;28;20604;-76
2022/04/19 08:10:34;;;;;;;8.10;3.87;;;11.00;99.90;;;;;;5051271;28;20044;-76
2022/04/19 08:13:00;;;;;;;6.97;4.23;;;11.30;99.90;;;;;;5054028;28;20107;-79
2022/04/19 08:15:26;;;;;;;6.27;4.23;;;11.30;99.90;;;;;;5052348;28;20762;-79
2022/04/19 08:17:51;;;;;;;5.68;3.95;;;11.40;99.90;;;;;;5053237;28;20024;-79
2022/04/19 08:20:17;;;;;;;7.95;4.20;;;11.40;99.90;;;;;;5048635;28;20078;-79
2022/04/19 08:22:44;;;;;;;6.53;4.17;;;11.50;99.90;;;;;;5043698;28;20029;-72
2022/04/19 08:25:10;;;;;;;7.28;4.50;;;11.90;99.90;;;;;;5064424;28;20111;-73
2022/04/19 08:27:45;;;;;;;7.88;3.80;;;11.90;99.90;;;;;;5069473;28;20033;-72
2022/04/19 08:30:15;;;;;;;7.43;4.18;;;11.90;99.90;;;;;;5064667;28;20351;-73
2022/04/19 08:32:48;;;;;;;7.93;4.80;;;12.00;99.90;;;;;;5051631;28;20419;-76
2022/04/19 08:35:14;;;;;;;8.52;4.15;;;12.30;99.90;;;;;;5034952;28;20401;-78
2022/04/19 08:37:40;;;;;;;8.35;4.63;;;12.50;99.90;;;;;;5050470;28;20021;-78
2022/04/19 08:40:08;;;;;;;6.38;3.92;;;12.50;99.90;;;;;;5044515;28;20097;-76
2022/04/19 08:42:35;;;;;;;9.00;4.30;;;12.60;99.90;;;;;;5072913;28;20032;-76
2022/04/19 08:45:02;;;;;;;7.30;4.65;;;12.80;99.90;;;;;;5072722;28;20024;-76
2022/04/19 08:47:30;;;;;;;11.25;5.10;;;12.90;99.90;;;;;;5072665;28;20051;-77
2022/04/19 08:49:56;;;;;;;8.73;4.47;;;13.10;99.90;;;;;;5072859;28;20435;-77
2022/04/19 08:52:21;;;;;;;6.85;4.47;;;13.00;99.90;;;;;;5053334;28;20185;-76
2022/04/19 08:57:33;;;;;;;6.90;4.60;;;13.60;99.90;;;;;;5059786;28;20044;-79
2022/04/19 09:00:01;;;;;;;11.63;4.85;;;13.70;99.90;;;;;;5056954;28;20037;-77
2022/04/19 09:02:29;;;;;;;7.65;5.07;;;13.70;99.90;;;;;;5060355;28;20056;-76
2022/04/19 09:05:11;;;;;;;9.98;4.50;;;13.90;99.90;;;;;;5049815;28;20053;-76
2022/04/19 09:07:37;;;;;;;9.38;4.63;;;14.20;99.90;;;;;;5032753;28;20040;-77
2022/04/19 09:10:04;;;;;;;6.03;4.57;;;14.30;99.90;;;;;;5056028;28;20075;-77
2022/04/19 09:12:29;;;;;;;8.07;4.82;;;14.60;99.90;;;;;;5039182;28;20121;-77
2022/04/19 09:15:06;;;;;;;7.22;4.60;;;15.00;98.20;;;;;;5056109;28;20492;-77
2022/04/19 09:17:39;;;;;;;6.70;4.90;;;15.20;98.50;;;;;;5056368;28;20098;-76
2022/04/19 09:20:18;;;;;;;8.73;4.95;;;15.60;95.90;;;;;;5038573;28;20539;-77
2022/04/19 09:22:48;;;;;;;6.78;4.35;;;15.80;94.20;;;;;;5056347;28;20021;-78
2022/04/19 09:25:26;;;;;;;7.28;4.53;;;15.50;94.50;;;;;;5056045;28;20029;-78
2022/04/19 09:27:55;;;;;;;9.48;5.25;;;15.50;95.50;;;;;;5056007;28;20065;-78
2022/04/19 09:30:31;;;;;;;7.25;5.13;;;15.70;94.20;;;;;;5044797;28;20123;-80
2022/04/19 09:33:00;;;;;;;7.25;4.65;;;15.60;93.80;;;;;;5051121;28;20025;-80
2022/04/19 09:35:43;;;;;;;6.75;4.55;;;15.70;94.30;;;;;;5051602;28;20024;-80
2022/04/19 09:38:09;;;;;;;7.07;4.45;;;16.30;93.20;;;;;;5051899;28;20032;-80
2022/04/19 09:40:45;;;;;;;7.90;4.50;;;16.50;91.70;;;;;;5049548;28;20213;-81
2022/04/19 09:43:14;;;;;;;5.97;4.35;;;16.70;91.50;;;;;;5038470;28;20021;-81
2022/04/19 09:45:58;;;;;;;10.85;4.90;;;16.10;88.10;;;;;;5051362;28;20675;-81
2022/04/19 09:48:24;;;;;;;7.05;5.32;;;15.80;91.20;;;;;;5071479;28;20423;-81
2022/04/19 09:50:54;;;;;;;8.68;5.65;;;16.20;90.50;;;;;;5070785;28;20029;-80
2022/04/19 09:53:22;;;;;;;6.95;4.63;;;16.20;90.60;;;;;;5074833;28;20745;-79
2022/04/19 09:55:50;;;;;;;6.75;5.28;;;15.90;90.10;;;;;;5068880;28;20016;-86
2022/04/19 09:58:16;;;;;;;7.63;4.82;;;15.90;90.50;;;;;;5069882;28;20025;-78
2022/04/19 10:00:46;;;;;;;7.75;5.45;;;15.90;91.00;;;;;;5070021;28;20109;-82
2022/04/19 10:08:46;;;;;;;8.57;4.85;;;16.20;90.50;;;;;;5073310;28;20121;-83
2022/04/19 10:11:13;;;;;;;6.18;4.45;;;15.90;90.20;;;;;;5072803;28;20033;-83
2022/04/19 10:13:39;;;;;;;6.38;4.80;;;16.10;90.10;;;;;;5073448;28;20036;-80
2022/04/19 10:16:12;;;;;;;8.70;5.05;;;15.80;89.50;;;;;;5076884;28;20021;-81
2022/04/19 10:18:44;;;;;;;7.35;5.20;;;15.90;90.80;;;;;;5083793;28;20404;-78
2022/04/19 10:21:14;;;;;;;8.38;5.60;;;15.60;90.00;;;;;;5087778;28;20032;-78
2022/04/19 10:23:42;;;;;;;6.20;5.10;;;15.80;90.50;;;;;;5086667;28;20028;-78
2022/04/19 10:26:22;;;;;;;11.05;5.70;;;16.10;90.70;;;;;;5091204;28;20031;-77
2022/04/19 10:28:53;;;;;;;7.25;5.15;;;16.50;89.40;;;;;;5095245;28;20043;-77
2022/04/19 10:31:35;;;;;;;6.70;5.13;;;16.80;87.60;;;;;;5081833;28;20032;-76
2022/04/19 10:34:05;;;;;;;6.20;4.75;;;17.10;90.10;;;;;;5071100;28;20031;-80
2022/04/19 10:36:34;;;;;;;7.05;5.10;;;16.80;89.30;;;;;;5076555;28;20016;-80
2022/04/19 10:39:12;;;;;;;8.52;5.35;;;17.20;83.50;;;;;;5071790;28;20035;-76
2022/04/19 10:41:55;;;;;;;7.28;6.10;;;17.00;85.80;;;;;;5086073;28;20116;-77
2022/04/19 10:44:46;;;;;;;9.30;5.38;;;17.10;84.20;;;;;;5088705;28;20035;-76
2022/04/19 10:47:18;;;;;;;9.70;4.95;;;17.40;83.10;;;;;;5079540;28;20056;-76
2022/04/19 10:49:57;;;;;;;7.07;5.43;;;17.20;82.30;;;;;;5048276;28;20028;-77
2022/04/19 10:52:39;;;;;;;10.63;6.18;;;17.10;85.80;;;;;;5049835;28;20029;-77
2022/04/19 10:55:08;;;;;;;9.68;6.40;;;17.20;82.30;;;;;;5048199;28;20029;-77
2022/04/19 11:00:41;;;;;;;7.80;5.00;;;17.10;82.20;;;;;;5073796;28;20546;-81
2022/04/19 11:03:18;;;;;;;8.50;5.10;;;17.20;82.10;;;;;;5076024;28;20036;-81
2022/04/19 11:05:48;;;;;;;7.60;5.28;;;17.00;83.40;;;;;;5075370;28;20021;-80
2022/04/19 11:08:19;;;;;;;8.73;5.43;;;17.00;81.50;;;;;;5075424;28;20035;-81
2022/04/19 11:10:45;;;;;;;7.47;5.10;;;16.90;81.70;;;;;;5076718;28;20028;-81
2022/04/19 11:13:11;;;;;;;7.57;5.57;;;16.40;82.10;;;;;;5057183;28;20161;-80
2022/04/19 11:15:38;;;;;;;6.50;4.85;;;16.30;84.90;;;;;;5074496;28;20024;-80
2022/04/19 11:18:27;;;;;;;7.72;5.13;;;16.20;85.70;;;;;;5075179;28;20466;-80
2022/04/19 11:20:56;;;;;;;8.15;5.07;;;15.80;86.90;;;;;;5075352;28;20094;-81
2022/04/19 11:23:26;;;;;;;7.57;4.45;;;15.70;86.30;;;;;;5075368;28;20032;-80
2022/04/19 11:25:56;;;;;;;5.65;4.63;;;16.10;85.00;;;;;;5075332;28;20032;-80
2022/04/19 11:28:31;;;;;;;9.00;5.05;;;16.50;86.60;;;;;;5074780;28;20034;-80
2022/04/19 11:30:57;;;;;;;9.00;4.65;;;17.00;85.90;;;;;;5074375;28;20035;-80
2022/04/19 11:33:24;;;;;;;5.70;4.13;;;17.50;83.80;;;;;;5070633;28;20028;-77
2022/04/19 11:36:16;;;;;;;10.02;4.47;;;17.80;77.80;;;;;;5051572;28;20409;-77
2022/04/19 11:38:49;;;;;;;6.50;4.45;;;17.80;76.30;;;;;;5047551;28;20033;-77
2022/04/19 11:46:45;;;;;;;7.13;4.30;;;17.90;75.20;;;;;;5059953;28;20047;-77
2022/04/19 11:49:26;;;;;;;8.73;4.95;;;18.50;76.50;;;;;;5066485;28;20036;-77
2022/04/19 11:51:54;;;;;;;8.77;5.50;;;18.90;76.20;;;;;;5064965;28;20044;-78
2022/04/19 11:54:31;;;;;;;7.50;5.00;;;18.40;74.40;;;;;;5053651;28;20044;-76
2022/04/19 11:57:05;;;;;;;4.88;4.18;;;18.30;76.60;;;;;;5073011;28;20017;-75
2022/04/19 11:59:33;;;;;;;5.75;3.78;;;19.20;79.00;;;;;;5071355;28;20400;-75
2022/04/19 12:02:00;;;;;;;5.85;4.00;;;19.80;71.10;;;;;;5061946;28;20100;-76
2022/04/19 12:04:27;;;;;;;9.82;4.32;;;19.60;68.90;;;;;;5062252;28;20125;-78
2022/04/19 12:06:54;;;;;;;5.32;4.70;;;19.70;72.60;;;;;;5055533;28;20036;-82
2022/04/19 12:09:20;;;;;;;6.68;3.65;;;20.10;68.00;;;;;;5053314;28;20794;-82
2022/04/19 12:11:47;;;;;;;6.95;4.35;;;20.60;68.50;;;;;;5056623;28;20021;-76
2022/04/19 12:14:27;;;;;;;5.68;4.35;;;20.80;69.30;;;;;;5060821;28;20028;-76
2022/04/19 12:17:18;;;;;;;4.63;3.88;;;20.90;63.60;;;;;;5065195;28;20092;-77
2022/04/19 12:19:44;;;;;;;7.32;3.55;;;20.70;64.80;;;;;;5042980;28;20063;-82
2022/04/19 12:22:23;;;;;;;4.45;3.95;;;20.20;65.80;;;;;;5046826;28;20127;-83
2022/04/19 12:24:55;;;;;;;5.25;3.50;;;19.30;64.50;;;;;;5031403;28;20110;-82
2022/04/19 12:27:27;;;;;;;7.13;4.15;;;18.80;66.10;;;;;;5047441;28;20768;-84
2022/04/19 12:30:01;;;;;;;5.13;3.70;;;19.00;65.70;;;;;;5050060;28;20791;-83
2022/04/19 12:32:50;;;;;;;9.30;3.95;;;18.60;70.90;;;;;;5053379;28;20510;-83
2022/04/19 12:35:17;;;;;;;7.55;4.13;;;18.80;67.80;;;;;;5054229;28;20174;-83
2022/04/19 12:37:43;;;;;;;5.38;4.50;;;19.10;65.90;;;;;;5054895;28;20056;-83
2022/04/19 12:40:10;;;;;;;7.40;4.20;;;19.00;65.60;;;;;;5052267;28;20554;-83
2022/04/19 12:42:49;;;;;;;6.70;4.63;;;19.10;67.80;;;;;;5054158;28;20040;-83
2022/04/19 12:45:15;;;;;;;5.38;3.78;;;19.10;65.80;;;;;;5058352;28;20749;-79
2022/04/19 12:47:49;;;;;;;7.93;4.30;;;19.10;66.80;;;;;;5057083;28;20162;-78
2022/04/19 12:50:19;;;;;;;7.07;4.22;;;19.60;67.30;;;;;;5056194;28;20541;-79
2022/04/19 12:52:45;;;;;;;5.47;4.13;;;19.40;65.80;;;;;;5060292;28;20117;-78
2022/04/19 12:55:11;;;;;;;5.15;4.47;;;18.70;66.30;;;;;;5065158;28;20036;-77
2022/04/19 12:57:39;;;;;;;7.28;4.45;;;18.50;68.70;;;;;;5058183;28;20021;-84
2022/04/19 13:00:09;;;;;;;5.82;4.40;;;18.60;68.10;;;;;;5057329;28;20036;-83
2022/04/19 13:02:40;;;;;;;4.68;3.42;;;18.70;66.70;;;;;;5055411;28;20028;-84
2022/04/19 13:05:06;;;;;;;5.05;3.85;;;19.00;66.00;;;;;;5040225;28;20082;-84
2022/04/19 13:13:03;;;;;;;4.45;3.47;;;19.40;66.20;;;;;;5052688;28;20799;-81
2022/04/19 13:15:31;;;;;;;6.78;3.10;;;19.00;65.10;;;;;;5043271;28;20033;-81
2022/04/19 13:17:56;;;;;;;5.10;3.65;;;19.00;68.20;;;;;;5044453;28;20036;-81
2022/04/19 13:20:22;;;;;;;5.95;3.38;;;19.00;64.90;;;;;;5031767;28;20040;-83
2022/04/19 13:22:48;;;;;;;5.05;3.30;;;18.70;63.60;;;;;;5051719;28;20029;-77
2022/04/19 13:25:13;;;;;;;4.07;3.33;;;18.50;63.90;;;;;;5059052;28;20045;-77
2022/04/19 13:27:39;;;;;;;4.55;3.75;;;18.40;64.40;;;;;;5058463;28;20029;-77
2022/04/19 13:30:07;;;;;;;6.25;3.40;;;18.10;66.50;;;;;;5055352;28;20032;-77
2022/04/19 13:32:32;;;;;;;6.03;2.97;;;17.90;67.40;;;;;;5039764;28;20029;-78
2022/04/19 13:34:58;;;;;;;5.45;3.50;;;17.60;70.20;;;;;;5042441;28;20025;-77
2022/04/19 13:40:09;;;;;;;4.75;2.92;;;16.90;70.40;;;;;;5055682;28;20051;-82